KEND/END METAR and TAF weather

Enter ICAO airport designator
Station Type Date Time Source
KEND METAR 2019/04/20 21:56 UTC NOAA

KEND 202156Z AUTO 17020G24KT 10SM CLR 27/11 A2982 RMK AO2 SLP094 T02740106 $


Station Type Date Time Source
KEND Decoded METAR 2019/04/20 21:56 UTC NOAA

Vance Air Force Base / Enid, OK, United States (KEND) 36-20N 097-55W
Apr 20, 2019 - 05:56 PM EDT / 2019.04.20 2156 UTC
Wind: from the S (170 degrees) at 23 MPH (20 KT) gusting to 28 MPH (24 KT):0
Visibility: 10 mile(s):0
Sky conditions: clear
Temperature: 81.3 F (27.4 C)
Dew Point: 51.1 F (10.6 C)
Relative Humidity: 35%
Pressure (altimeter): 29.82 in. Hg (1009 hPa)
ob: KEND 202156Z AUTO 17020G24KT 10SM CLR 27/11 A2982 RMK AO2 SLP094 T02740106
cycle: 22

Station Type Date Time Source
KEND TAF 2019/04/20 01:34 UTC NOAA

TAF
AMD KEND 200125Z 2001/2024 31006KT 9999 SKC QNH2994INS
BECMG 2017/2018 20010G15KT 9999 SKC QNH2979INS TX25/2021Z TN08/2011Z LAST NO
AMDS AFT 2001 NEXT 2210

Example: see airport list